sensor_id;sensor_type;location;lat;lon;timestamp;P1;durP1;ratioP1;P2;durP2;ratioP2
33162;SDS011;29282;45.656;11.302;2023-05-18T00:01:11;2.78;;;1.65;;
33162;SDS011;29282;45.656;11.302;2023-05-18T00:03:38;3.63;;;1.40;;
33162;SDS011;29282;45.656;11.302;2023-05-18T00:06:05;3.47;;;1.58;;
33162;SDS011;29282;45.656;11.302;2023-05-18T00:08:34;5.32;;;1.60;;
33162;SDS011;29282;45.656;11.302;2023-05-18T00:11:01;1.67;;;1.27;;
33162;SDS011;29282;45.656;11.302;2023-05-18T00:13:27;2.45;;;1.27;;
33162;SDS011;29282;45.656;11.302;2023-05-18T00:15:53;4.13;;;1.60;;
33162;SDS011;29282;45.656;11.302;2023-05-18T00:18:19;2.00;;;1.50;;
33162;SDS011;29282;45.656;11.302;2023-05-18T00:20:51;5.07;;;1.75;;
33162;SDS011;29282;45.656;11.302;2023-05-18T00:23:23;1.73;;;1.33;;
33162;SDS011;29282;45.656;11.302;2023-05-18T00:25:49;2.83;;;1.40;;
33162;SDS011;29282;45.656;11.302;2023-05-18T00:28:15;3.35;;;1.58;;
33162;SDS011;29282;45.656;11.302;2023-05-18T00:30:41;1.52;;;1.30;;
33162;SDS011;29282;45.656;11.302;2023-05-18T00:33:07;4.15;;;1.73;;
33162;SDS011;29282;45.656;11.302;2023-05-18T00:35:32;3.50;;;1.38;;
33162;SDS011;29282;45.656;11.302;2023-05-18T00:37:57;1.95;;;1.42;;
33162;SDS011;29282;45.656;11.302;2023-05-18T00:40:23;1.60;;;1.30;;
33162;SDS011;29282;45.656;11.302;2023-05-18T00:42:50;2.22;;;1.50;;
33162;SDS011;29282;45.656;11.302;2023-05-18T00:45:17;3.08;;;1.50;;
33162;SDS011;29282;45.656;11.302;2023-05-18T00:47:43;3.28;;;1.45;;
33162;SDS011;29282;45.656;11.302;2023-05-18T00:50:08;1.60;;;1.40;;
33162;SDS011;29282;45.656;11.302;2023-05-18T00:52:35;1.80;;;1.38;;
33162;SDS011;29282;45.656;11.302;2023-05-18T00:55:00;2.83;;;1.50;;
33162;SDS011;29282;45.656;11.302;2023-05-18T00:57:26;4.13;;;1.73;;
33162;SDS011;29282;45.656;11.302;2023-05-18T00:59:52;2.17;;;1.38;;
33162;SDS011;29282;45.656;11.302;2023-05-18T01:02:19;1.40;;;1.27;;
33162;SDS011;29282;45.656;11.302;2023-05-18T01:04:45;3.50;;;1.52;;
33162;SDS011;29282;45.656;11.302;2023-05-18T01:07:10;2.55;;;1.30;;
33162;SDS011;29282;45.656;11.302;2023-05-18T01:09:36;1.75;;;1.20;;
33162;SDS011;29282;45.656;11.302;2023-05-18T01:12:06;3.40;;;1.45;;
33162;SDS011;29282;45.656;11.302;2023-05-18T01:14:48;2.80;;;1.42;;
33162;SDS011;29282;45.656;11.302;2023-05-18T01:22:27;3.15;;;1.40;;
33162;SDS011;29282;45.656;11.302;2023-05-18T01:25:43;1.55;;;1.23;;
33162;SDS011;29282;45.656;11.302;2023-05-18T01:28:16;2.35;;;1.40;;
33162;SDS011;29282;45.656;11.302;2023-05-18T01:30:44;2.78;;;1.55;;
33162;SDS011;29282;45.656;11.302;2023-05-18T01:33:11;2.25;;;1.40;;
33162;SDS011;29282;45.656;11.302;2023-05-18T01:35:38;2.35;;;1.48;;
33162;SDS011;29282;45.656;11.302;2023-05-18T01:38:12;2.33;;;1.30;;
33162;SDS011;29282;45.656;11.302;2023-05-18T01:40:47;1.80;;;1.42;;
33162;SDS011;29282;45.656;11.302;2023-05-18T01:43:32;1.63;;;1.20;;
33162;SDS011;29282;45.656;11.302;2023-05-18T01:46:44;2.40;;;1.42;;
33162;SDS011;29282;45.656;11.302;2023-05-18T01:48:58;1.75;;;1.20;;
33162;SDS011;29282;45.656;11.302;2023-05-18T01:51:28;1.77;;;1.27;;
33162;SDS011;29282;45.656;11.302;2023-05-18T01:53:59;2.22;;;1.48;;
33162;SDS011;29282;45.656;11.302;2023-05-18T01:56:29;2.17;;;1.23;;
33162;SDS011;29282;45.656;11.302;2023-05-18T01:58:56;1.88;;;1.20;;
33162;SDS011;29282;45.656;11.302;2023-05-18T02:01:22;1.63;;;1.27;;
33162;SDS011;29282;45.656;11.302;2023-05-18T02:03:48;1.63;;;1.20;;
33162;SDS011;29282;45.656;11.302;2023-05-18T02:06:14;2.08;;;1.65;;
33162;SDS011;29282;45.656;11.302;2023-05-18T02:08:40;3.58;;;1.42;;
33162;SDS011;29282;45.656;11.302;2023-05-18T02:11:05;2.15;;;1.23;;
33162;SDS011;29282;45.656;11.302;2023-05-18T02:13:31;3.53;;;1.27;;
33162;SDS011;29282;45.656;11.302;2023-05-18T02:15:56;4.00;;;1.40;;
33162;SDS011;29282;45.656;11.302;2023-05-18T02:18:22;1.58;;;1.13;;
33162;SDS011;29282;45.656;11.302;2023-05-18T02:20:47;2.15;;;1.40;;
33162;SDS011;29282;45.656;11.302;2023-05-18T02:23:13;1.75;;;1.38;;
33162;SDS011;29282;45.656;11.302;2023-05-18T02:25:39;1.92;;;1.38;;
33162;SDS011;29282;45.656;11.302;2023-05-18T02:28:04;1.88;;;1.10;;
33162;SDS011;29282;45.656;11.302;2023-05-18T02:30:30;2.75;;;1.20;;
33162;SDS011;29282;45.656;11.302;2023-05-18T02:32:57;2.63;;;1.30;;
33162;SDS011;29282;45.656;11.302;2023-05-18T02:35:23;2.33;;;1.27;;
33162;SDS011;29282;45.656;11.302;2023-05-18T02:37:48;1.83;;;1.40;;
33162;SDS011;29282;45.656;11.302;2023-05-18T02:40:14;1.40;;;1.30;;
33162;SDS011;29282;45.656;11.302;2023-05-18T02:42:40;1.52;;;1.30;;
33162;SDS011;29282;45.656;11.302;2023-05-18T02:45:06;1.88;;;1.05;;
33162;SDS011;29282;45.656;11.302;2023-05-18T02:47:32;2.60;;;1.38;;
33162;SDS011;29282;45.656;11.302;2023-05-18T02:49:58;2.17;;;1.08;;
33162;SDS011;29282;45.656;11.302;2023-05-18T02:52:23;2.53;;;1.30;;
33162;SDS011;29282;45.656;11.302;2023-05-18T02:54:49;1.10;;;1.00;;
33162;SDS011;29282;45.656;11.302;2023-05-18T02:57:14;2.28;;;1.20;;
33162;SDS011;29282;45.656;11.302;2023-05-18T02:59:40;2.22;;;1.40;;
33162;SDS011;29282;45.656;11.302;2023-05-18T03:02:06;2.50;;;1.35;;
33162;SDS011;29282;45.656;11.302;2023-05-18T03:04:31;2.50;;;1.30;;
33162;SDS011;29282;45.656;11.302;2023-05-18T03:06:57;2.88;;;1.30;;
33162;SDS011;29282;45.656;11.302;2023-05-18T03:09:26;2.13;;;1.35;;
33162;SDS011;29282;45.656;11.302;2023-05-18T03:11:52;2.03;;;1.17;;
33162;SDS011;29282;45.656;11.302;2023-05-18T03:14:18;1.23;;;1.13;;
33162;SDS011;29282;45.656;11.302;2023-05-18T03:16:43;1.10;;;1.00;;
33162;SDS011;29282;45.656;11.302;2023-05-18T03:19:09;2.22;;;1.13;;
33162;SDS011;29282;45.656;11.302;2023-05-18T03:21:34;1.15;;;0.90;;
33162;SDS011;29282;45.656;11.302;2023-05-18T03:24:00;1.38;;;1.10;;
33162;SDS011;29282;45.656;11.302;2023-05-18T03:26:27;2.17;;;1.10;;
33162;SDS011;29282;45.656;11.302;2023-05-18T03:28:55;2.72;;;1.20;;
33162;SDS011;29282;45.656;11.302;2023-05-18T03:31:21;1.75;;;1.02;;
33162;SDS011;29282;45.656;11.302;2023-05-18T03:33:47;1.00;;;0.90;;
33162;SDS011;29282;45.656;11.302;2023-05-18T03:36:12;1.60;;;1.25;;
33162;SDS011;29282;45.656;11.302;2023-05-18T03:38:38;2.28;;;1.15;;
33162;SDS011;29282;45.656;11.302;2023-05-18T03:41:04;1.13;;;1.02;;
33162;SDS011;29282;45.656;11.302;2023-05-18T03:43:29;1.58;;;1.10;;
33162;SDS011;29282;45.656;11.302;2023-05-18T03:45:56;1.08;;;0.93;;
33162;SDS011;29282;45.656;11.302;2023-05-18T03:48:23;1.45;;;1.13;;
33162;SDS011;29282;45.656;11.302;2023-05-18T03:50:48;1.20;;;1.10;;
33162;SDS011;29282;45.656;11.302;2023-05-18T03:53:14;2.67;;;1.20;;
33162;SDS011;29282;45.656;11.302;2023-05-18T03:55:43;2.45;;;1.17;;
33162;SDS011;29282;45.656;11.302;2023-05-18T03:58:09;1.40;;;1.00;;
33162;SDS011;29282;45.656;11.302;2023-05-18T04:00:34;1.75;;;1.33;;
33162;SDS011;29282;45.656;11.302;2023-05-18T04:03:00;3.05;;;1.20;;
33162;SDS011;29282;45.656;11.302;2023-05-18T04:05:27;2.97;;;1.20;;
33162;SDS011;29282;45.656;11.302;2023-05-18T04:07:53;1.60;;;1.10;;
33162;SDS011;29282;45.656;11.302;2023-05-18T04:10:21;1.95;;;1.10;;
33162;SDS011;29282;45.656;11.302;2023-05-18T04:12:47;1.13;;;0.98;;
33162;SDS011;29282;45.656;11.302;2023-05-18T04:15:13;1.85;;;0.95;;
33162;SDS011;29282;45.656;11.302;2023-05-18T04:17:39;1.35;;;1.00;;
33162;SDS011;29282;45.656;11.302;2023-05-18T04:20:09;1.92;;;1.13;;
33162;SDS011;29282;45.656;11.302;2023-05-18T04:22:44;1.65;;;1.00;;
33162;SDS011;29282;45.656;11.302;2023-05-18T04:25:15;2.07;;;1.40;;
33162;SDS011;29282;45.656;11.302;2023-05-18T04:27:41;2.70;;;1.20;;
33162;SDS011;29282;45.656;11.302;2023-05-18T04:30:09;2.10;;;1.20;;
33162;SDS011;29282;45.656;11.302;2023-05-18T04:32:36;2.53;;;1.35;;
33162;SDS011;29282;45.656;11.302;2023-05-18T04:35:03;6.70;;;2.13;;
33162;SDS011;29282;45.656;11.302;2023-05-18T04:37:30;19.25;;;3.40;;
33162;SDS011;29282;45.656;11.302;2023-05-18T04:39:56;9.48;;;2.78;;
33162;SDS011;29282;45.656;11.302;2023-05-18T04:42:22;22.52;;;3.35;;
33162;SDS011;29282;45.656;11.302;2023-05-18T04:44:51;17.55;;;3.72;;
33162;SDS011;29282;45.656;11.302;2023-05-18T04:47:18;10.52;;;3.47;;
33162;SDS011;29282;45.656;11.302;2023-05-18T04:49:47;14.63;;;3.80;;
33162;SDS011;29282;45.656;11.302;2023-05-18T04:52:17;11.55;;;3.13;;
33162;SDS011;29282;45.656;11.302;2023-05-18T04:54:44;12.18;;;3.08;;
33162;SDS011;29282;45.656;11.302;2023-05-18T04:57:10;11.50;;;3.33;;
33162;SDS011;29282;45.656;11.302;2023-05-18T04:59:37;11.10;;;3.20;;
33162;SDS011;29282;45.656;11.302;2023-05-18T05:02:02;11.07;;;2.97;;
33162;SDS011;29282;45.656;11.302;2023-05-18T05:04:31;14.93;;;3.38;;
33162;SDS011;29282;45.656;11.302;2023-05-18T05:06:56;18.45;;;3.40;;
33162;SDS011;29282;45.656;11.302;2023-05-18T05:09:24;13.05;;;2.63;;
33162;SDS011;29282;45.656;11.302;2023-05-18T05:11:50;10.25;;;3.08;;
33162;SDS011;29282;45.656;11.302;2023-05-18T05:14:15;8.45;;;2.65;;
33162;SDS011;29282;45.656;11.302;2023-05-18T05:16:41;7.53;;;2.75;;
33162;SDS011;29282;45.656;11.302;2023-05-18T05:19:06;10.63;;;2.65;;
33162;SDS011;29282;45.656;11.302;2023-05-18T05:21:32;6.32;;;2.30;;
33162;SDS011;29282;45.656;11.302;2023-05-18T05:23:58;7.88;;;2.53;;
33162;SDS011;29282;45.656;11.302;2023-05-18T05:26:25;12.68;;;3.03;;
33162;SDS011;29282;45.656;11.302;2023-05-18T05:28:51;8.60;;;2.60;;
33162;SDS011;29282;45.656;11.302;2023-05-18T05:31:16;6.10;;;2.25;;
33162;SDS011;29282;45.656;11.302;2023-05-18T05:33:42;10.60;;;2.92;;
33162;SDS011;29282;45.656;11.302;2023-05-18T05:36:09;8.15;;;2.25;;
33162;SDS011;29282;45.656;11.302;2023-05-18T05:38:34;5.75;;;2.20;;
33162;SDS011;29282;45.656;11.302;2023-05-18T05:41:00;7.57;;;2.42;;
33162;SDS011;29282;45.656;11.302;2023-05-18T05:43:25;7.28;;;2.47;;
33162;SDS011;29282;45.656;11.302;2023-05-18T05:45:51;6.03;;;2.05;;
33162;SDS011;29282;45.656;11.302;2023-05-18T05:48:16;8.02;;;2.13;;
33162;SDS011;29282;45.656;11.302;2023-05-18T05:50:42;8.75;;;2.80;;
33162;SDS011;29282;45.656;11.302;2023-05-18T05:53:07;8.88;;;2.63;;
33162;SDS011;29282;45.656;11.302;2023-05-18T05:55:36;7.93;;;2.33;;
33162;SDS011;29282;45.656;11.302;2023-05-18T05:58:05;8.52;;;2.40;;
33162;SDS011;29282;45.656;11.302;2023-05-18T06:00:31;6.57;;;2.10;;
33162;SDS011;29282;45.656;11.302;2023-05-18T06:02:57;7.15;;;2.38;;
33162;SDS011;29282;45.656;11.302;2023-05-18T06:05:25;6.47;;;2.47;;
33162;SDS011;29282;45.656;11.302;2023-05-18T06:07:50;6.40;;;2.20;;
33162;SDS011;29282;45.656;11.302;2023-05-18T06:10:16;7.97;;;2.00;;
33162;SDS011;29282;45.656;11.302;2023-05-18T06:12:42;6.38;;;2.10;;
33162;SDS011;29282;45.656;11.302;2023-05-18T06:15:07;7.97;;;1.92;;
33162;SDS011;29282;45.656;11.302;2023-05-18T06:17:33;6.63;;;2.22;;
33162;SDS011;29282;45.656;11.302;2023-05-18T06:19:59;11.13;;;2.28;;
33162;SDS011;29282;45.656;11.302;2023-05-18T06:22:24;4.93;;;2.45;;
33162;SDS011;29282;45.656;11.302;2023-05-18T06:24:49;7.45;;;2.30;;
33162;SDS011;29282;45.656;11.302;2023-05-18T06:27:16;9.07;;;2.42;;
33162;SDS011;29282;45.656;11.302;2023-05-18T06:29:43;6.30;;;2.45;;
33162;SDS011;29282;45.656;11.302;2023-05-18T06:32:08;5.28;;;2.20;;
33162;SDS011;29282;45.656;11.302;2023-05-18T06:34:34;6.32;;;2.50;;
33162;SDS011;29282;45.656;11.302;2023-05-18T06:36:59;8.30;;;2.38;;
33162;SDS011;29282;45.656;11.302;2023-05-18T06:39:25;5.93;;;2.13;;
33162;SDS011;29282;45.656;11.302;2023-05-18T06:41:53;6.65;;;2.20;;
33162;SDS011;29282;45.656;11.302;2023-05-18T06:44:19;7.68;;;2.30;;
33162;SDS011;29282;45.656;11.302;2023-05-18T06:46:45;9.45;;;1.90;;
33162;SDS011;29282;45.656;11.302;2023-05-18T06:49:11;6.80;;;2.10;;
33162;SDS011;29282;45.656;11.302;2023-05-18T06:51:40;9.90;;;2.63;;
33162;SDS011;29282;45.656;11.302;2023-05-18T06:54:07;13.73;;;3.10;;
33162;SDS011;29282;45.656;11.302;2023-05-18T06:56:33;6.13;;;2.20;;
33162;SDS011;29282;45.656;11.302;2023-05-18T06:58:58;11.23;;;2.25;;
33162;SDS011;29282;45.656;11.302;2023-05-18T07:01:24;11.52;;;2.78;;
33162;SDS011;29282;45.656;11.302;2023-05-18T07:03:49;12.57;;;2.35;;
33162;SDS011;29282;45.656;11.302;2023-05-18T07:06:15;9.05;;;2.50;;
33162;SDS011;29282;45.656;11.302;2023-05-18T07:08:40;8.07;;;2.15;;
33162;SDS011;29282;45.656;11.302;2023-05-18T07:11:06;8.93;;;2.20;;
33162;SDS011;29282;45.656;11.302;2023-05-18T07:13:31;6.60;;;2.10;;
33162;SDS011;29282;45.656;11.302;2023-05-18T07:15:57;6.53;;;1.95;;
33162;SDS011;29282;45.656;11.302;2023-05-18T07:18:22;6.75;;;1.88;;
33162;SDS011;29282;45.656;11.302;2023-05-18T07:20:48;6.55;;;2.00;;
33162;SDS011;29282;45.656;11.302;2023-05-18T07:23:14;6.65;;;2.40;;
33162;SDS011;29282;45.656;11.302;2023-05-18T07:25:39;5.93;;;1.90;;
33162;SDS011;29282;45.656;11.302;2023-05-18T07:28:05;5.18;;;1.77;;
33162;SDS011;29282;45.656;11.302;2023-05-18T07:30:31;4.88;;;2.00;;
33162;SDS011;29282;45.656;11.302;2023-05-18T07:32:59;8.88;;;2.20;;
33162;SDS011;29282;45.656;11.302;2023-05-18T07:35:26;9.32;;;1.75;;
33162;SDS011;29282;45.656;11.302;2023-05-18T07:37:51;4.15;;;1.77;;
33162;SDS011;29282;45.656;11.302;2023-05-18T07:40:18;4.68;;;1.83;;
33162;SDS011;29282;45.656;11.302;2023-05-18T07:42:43;5.90;;;2.13;;
33162;SDS011;29282;45.656;11.302;2023-05-18T07:45:09;7.72;;;1.90;;
33162;SDS011;29282;45.656;11.302;2023-05-18T07:47:35;4.70;;;1.58;;
33162;SDS011;29282;45.656;11.302;2023-05-18T07:50:01;3.85;;;1.65;;
33162;SDS011;29282;45.656;11.302;2023-05-18T07:52:26;6.70;;;2.05;;
33162;SDS011;29282;45.656;11.302;2023-05-18T07:54:54;3.75;;;1.70;;
33162;SDS011;29282;45.656;11.302;2023-05-18T07:57:21;3.95;;;2.10;;
33162;SDS011;29282;45.656;11.302;2023-05-18T07:59:46;6.65;;;1.73;;
33162;SDS011;29282;45.656;11.302;2023-05-18T08:02:15;6.57;;;2.08;;
33162;SDS011;29282;45.656;11.302;2023-05-18T08:04:41;4.90;;;1.67;;
33162;SDS011;29282;45.656;11.302;2023-05-18T08:07:07;4.20;;;1.77;;
33162;SDS011;29282;45.656;11.302;2023-05-18T08:09:33;3.67;;;2.00;;
33162;SDS011;29282;45.656;11.302;2023-05-18T08:11:59;3.38;;;1.40;;
33162;SDS011;29282;45.656;11.302;2023-05-18T08:14:24;5.60;;;1.65;;
33162;SDS011;29282;45.656;11.302;2023-05-18T08:16:53;3.15;;;1.70;;
33162;SDS011;29282;45.656;11.302;2023-05-18T08:19:18;5.88;;;2.22;;
33162;SDS011;29282;45.656;11.302;2023-05-18T08:21:44;5.25;;;1.98;;
33162;SDS011;29282;45.656;11.302;2023-05-18T08:24:10;3.13;;;1.42;;
33162;SDS011;29282;45.656;11.302;2023-05-18T08:26:35;6.65;;;1.65;;
33162;SDS011;29282;45.656;11.302;2023-05-18T08:29:04;3.28;;;1.40;;
33162;SDS011;29282;45.656;11.302;2023-05-18T08:31:37;4.57;;;1.55;;
33162;SDS011;29282;45.656;11.302;2023-05-18T08:34:03;5.13;;;1.98;;
33162;SDS011;29282;45.656;11.302;2023-05-18T08:36:33;3.58;;;1.70;;
33162;SDS011;29282;45.656;11.302;2023-05-18T08:39:00;4.80;;;1.65;;
33162;SDS011;29282;45.656;11.302;2023-05-18T08:44:24;2.22;;;1.40;;
33162;SDS011;29282;45.656;11.302;2023-05-18T08:46:53;1.77;;;1.40;;
33162;SDS011;29282;45.656;11.302;2023-05-18T08:49:20;6.20;;;1.63;;
33162;SDS011;29282;45.656;11.302;2023-05-18T08:51:56;2.25;;;1.40;;
33162;SDS011;29282;45.656;11.302;2023-05-18T08:54:24;3.20;;;1.55;;
33162;SDS011;29282;45.656;11.302;2023-05-18T08:56:51;3.65;;;1.63;;
33162;SDS011;29282;45.656;11.302;2023-05-18T08:59:18;2.65;;;1.23;;
33162;SDS011;29282;45.656;11.302;2023-05-18T09:01:47;2.65;;;1.60;;
33162;SDS011;29282;45.656;11.302;2023-05-18T09:04:12;4.18;;;1.50;;
33162;SDS011;29282;45.656;11.302;2023-05-18T09:06:41;2.65;;;1.48;;
33162;SDS011;29282;45.656;11.302;2023-05-18T09:09:08;3.63;;;1.58;;
33162;SDS011;29282;45.656;11.302;2023-05-18T09:11:34;5.18;;;1.52;;
33162;SDS011;29282;45.656;11.302;2023-05-18T09:14:00;4.85;;;1.63;;
33162;SDS011;29282;45.656;11.302;2023-05-18T09:16:26;3.45;;;1.63;;
33162;SDS011;29282;45.656;11.302;2023-05-18T09:18:52;5.00;;;1.52;;
33162;SDS011;29282;45.656;11.302;2023-05-18T09:21:17;3.17;;;1.50;;
33162;SDS011;29282;45.656;11.302;2023-05-18T09:23:43;3.35;;;1.40;;
33162;SDS011;29282;45.656;11.302;2023-05-18T09:26:09;2.30;;;1.45;;
33162;SDS011;29282;45.656;11.302;2023-05-18T09:28:37;4.22;;;1.70;;
33162;SDS011;29282;45.656;11.302;2023-05-18T09:31:05;1.80;;;1.33;;
33162;SDS011;29282;45.656;11.302;2023-05-18T09:33:34;2.50;;;1.25;;
33162;SDS011;29282;45.656;11.302;2023-05-18T09:36:05;3.13;;;1.60;;
33162;SDS011;29282;45.656;11.302;2023-05-18T09:38:35;2.70;;;1.45;;
33162;SDS011;29282;45.656;11.302;2023-05-18T09:41:02;3.10;;;1.55;;
33162;SDS011;29282;45.656;11.302;2023-05-18T09:43:27;3.58;;;1.50;;
33162;SDS011;29282;45.656;11.302;2023-05-18T09:45:53;2.40;;;1.45;;
33162;SDS011;29282;45.656;11.302;2023-05-18T09:48:18;2.22;;;1.42;;
33162;SDS011;29282;45.656;11.302;2023-05-18T09:50:44;4.72;;;1.25;;
33162;SDS011;29282;45.656;11.302;2023-05-18T09:53:11;3.50;;;1.50;;
33162;SDS011;29282;45.656;11.302;2023-05-18T09:55:43;3.22;;;1.40;;
33162;SDS011;29282;45.656;11.302;2023-05-18T09:58:10;3.08;;;1.55;;
33162;SDS011;29282;45.656;11.302;2023-05-18T10:00:36;3.40;;;1.55;;
33162;SDS011;29282;45.656;11.302;2023-05-18T10:03:05;3.28;;;1.45;;
33162;SDS011;29282;45.656;11.302;2023-05-18T10:05:44;6.07;;;1.48;;
33162;SDS011;29282;45.656;11.302;2023-05-18T10:08:11;5.82;;;1.70;;
33162;SDS011;29282;45.656;11.302;2023-05-18T10:10:38;5.60;;;2.15;;
33162;SDS011;29282;45.656;11.302;2023-05-18T10:13:05;4.88;;;1.40;;
33162;SDS011;29282;45.656;11.302;2023-05-18T10:15:30;5.72;;;1.35;;
33162;SDS011;29282;45.656;11.302;2023-05-18T10:17:57;1.85;;;1.25;;
33162;SDS011;29282;45.656;11.302;2023-05-18T10:20:24;5.25;;;1.75;;
33162;SDS011;29282;45.656;11.302;2023-05-18T10:22:53;2.75;;;1.67;;
33162;SDS011;29282;45.656;11.302;2023-05-18T10:25:21;5.70;;;1.80;;
33162;SDS011;29282;45.656;11.302;2023-05-18T10:27:50;3.80;;;1.35;;
33162;SDS011;29282;45.656;11.302;2023-05-18T10:30:20;7.75;;;1.50;;
33162;SDS011;29282;45.656;11.302;2023-05-18T10:32:46;6.10;;;1.80;;
33162;SDS011;29282;45.656;11.302;2023-05-18T10:35:12;8.57;;;1.75;;
33162;SDS011;29282;45.656;11.302;2023-05-18T10:37:40;3.58;;;1.58;;
33162;SDS011;29282;45.656;11.302;2023-05-18T10:40:08;5.63;;;2.13;;
33162;SDS011;29282;45.656;11.302;2023-05-18T10:42:35;6.78;;;1.92;;
33162;SDS011;29282;45.656;11.302;2023-05-18T10:45:02;3.85;;;1.65;;
33162;SDS011;29282;45.656;11.302;2023-05-18T10:47:32;8.07;;;1.88;;
33162;SDS011;29282;45.656;11.302;2023-05-18T10:50:03;8.02;;;1.70;;
33162;SDS011;29282;45.656;11.302;2023-05-18T10:52:30;7.53;;;1.80;;
33162;SDS011;29282;45.656;11.302;2023-05-18T10:54:57;4.00;;;1.90;;
33162;SDS011;29282;45.656;11.302;2023-05-18T10:57:25;4.43;;;1.65;;
33162;SDS011;29282;45.656;11.302;2023-05-18T10:59:56;7.43;;;1.60;;
33162;SDS011;29282;45.656;11.302;2023-05-18T11:02:22;5.15;;;1.70;;
33162;SDS011;29282;45.656;11.302;2023-05-18T11:04:48;2.72;;;1.23;;
33162;SDS011;29282;45.656;11.302;2023-05-18T11:07:14;2.85;;;1.58;;
33162;SDS011;29282;45.656;11.302;2023-05-18T11:09:40;8.23;;;2.00;;
33162;SDS011;29282;45.656;11.302;2023-05-18T11:12:10;2.75;;;1.33;;
33162;SDS011;29282;45.656;11.302;2023-05-18T11:14:46;8.48;;;2.00;;
33162;SDS011;29282;45.656;11.302;2023-05-18T11:17:16;3.38;;;1.45;;
33162;SDS011;29282;45.656;11.302;2023-05-18T11:22:42;2.13;;;1.55;;
33162;SDS011;29282;45.656;11.302;2023-05-18T11:25:34;5.53;;;1.70;;
33162;SDS011;29282;45.656;11.302;2023-05-18T11:28:01;5.75;;;1.85;;
33162;SDS011;29282;45.656;11.302;2023-05-18T11:33:14;4.55;;;1.60;;
33162;SDS011;29282;45.656;11.302;2023-05-18T11:35:55;4.93;;;1.77;;
33162;SDS011;29282;45.656;11.302;2023-05-18T11:38:22;3.63;;;1.45;;
33162;SDS011;29282;45.656;11.302;2023-05-18T11:41:08;2.38;;;1.30;;
33162;SDS011;29282;45.656;11.302;2023-05-18T11:44:04;4.40;;;1.63;;
33162;SDS011;29282;45.656;11.302;2023-05-18T11:46:36;3.10;;;1.65;;
33162;SDS011;29282;45.656;11.302;2023-05-18T11:49:07;3.00;;;1.42;;
33162;SDS011;29282;45.656;11.302;2023-05-18T11:51:44;4.75;;;1.70;;
33162;SDS011;29282;45.656;11.302;2023-05-18T11:54:25;2.72;;;1.48;;
33162;SDS011;29282;45.656;11.302;2023-05-18T11:56:51;4.30;;;1.60;;
33162;SDS011;29282;45.656;11.302;2023-05-18T11:59:28;3.17;;;1.60;;
33162;SDS011;29282;45.656;11.302;2023-05-18T12:02:19;2.13;;;1.40;;
33162;SDS011;29282;45.656;11.302;2023-05-18T12:04:52;3.90;;;1.40;;
33162;SDS011;29282;45.656;11.302;2023-05-18T12:07:22;3.33;;;1.70;;
33162;SDS011;29282;45.656;11.302;2023-05-18T12:09:49;4.55;;;1.50;;
33162;SDS011;29282;45.656;11.302;2023-05-18T12:12:15;3.80;;;1.60;;
33162;SDS011;29282;45.656;11.302;2023-05-18T12:14:46;5.32;;;1.70;;
33162;SDS011;29282;45.656;11.302;2023-05-18T12:17:18;4.75;;;1.38;;
33162;SDS011;29282;45.656;11.302;2023-05-18T12:19:45;2.72;;;1.40;;
33162;SDS011;29282;45.656;11.302;2023-05-18T12:22:12;2.80;;;1.40;;
33162;SDS011;29282;45.656;11.302;2023-05-18T12:24:38;5.00;;;1.48;;
33162;SDS011;29282;45.656;11.302;2023-05-18T12:27:05;3.53;;;1.30;;
33162;SDS011;29282;45.656;11.302;2023-05-18T12:29:32;4.35;;;1.40;;
33162;SDS011;29282;45.656;11.302;2023-05-18T12:32:05;2.17;;;1.35;;
33162;SDS011;29282;45.656;11.302;2023-05-18T12:34:32;2.58;;;1.42;;
33162;SDS011;29282;45.656;11.302;2023-05-18T12:36:58;4.85;;;1.65;;
33162;SDS011;29282;45.656;11.302;2023-05-18T12:39:23;2.88;;;1.13;;
33162;SDS011;29282;45.656;11.302;2023-05-18T12:41:49;3.63;;;1.48;;
33162;SDS011;29282;45.656;11.302;2023-05-18T12:44:15;2.33;;;1.30;;
33162;SDS011;29282;45.656;11.302;2023-05-18T12:46:40;5.50;;;1.65;;
33162;SDS011;29282;45.656;11.302;2023-05-18T12:49:10;3.38;;;1.70;;
33162;SDS011;29282;45.656;11.302;2023-05-18T12:51:36;3.65;;;1.60;;
33162;SDS011;29282;45.656;11.302;2023-05-18T12:54:05;3.50;;;1.40;;
33162;SDS011;29282;45.656;11.302;2023-05-18T12:56:48;1.90;;;1.20;;
33162;SDS011;29282;45.656;11.302;2023-05-18T12:59:23;2.63;;;1.50;;
33162;SDS011;29282;45.656;11.302;2023-05-18T13:01:49;2.17;;;1.30;;
33162;SDS011;29282;45.656;11.302;2023-05-18T13:04:14;2.92;;;1.33;;
33162;SDS011;29282;45.656;11.302;2023-05-18T13:06:40;2.83;;;1.20;;
33162;SDS011;29282;45.656;11.302;2023-05-18T13:09:07;3.17;;;1.55;;
33162;SDS011;29282;45.656;11.302;2023-05-18T13:11:36;2.45;;;1.30;;
33162;SDS011;29282;45.656;11.302;2023-05-18T13:14:05;3.05;;;1.38;;
33162;SDS011;29282;45.656;11.302;2023-05-18T13:16:32;2.20;;;1.30;;
33162;SDS011;29282;45.656;11.302;2023-05-18T13:19:02;3.95;;;1.58;;
33162;SDS011;29282;45.656;11.302;2023-05-18T13:21:29;1.85;;;1.30;;
33162;SDS011;29282;45.656;11.302;2023-05-18T13:23:55;2.28;;;1.30;;
33162;SDS011;29282;45.656;11.302;2023-05-18T13:26:21;1.92;;;1.23;;
33162;SDS011;29282;45.656;11.302;2023-05-18T13:28:47;3.50;;;1.27;;
33162;SDS011;29282;45.656;11.302;2023-05-18T13:31:14;2.60;;;1.23;;
33162;SDS011;29282;45.656;11.302;2023-05-18T13:33:40;5.97;;;1.63;;
33162;SDS011;29282;45.656;11.302;2023-05-18T13:36:05;2.20;;;1.30;;
33162;SDS011;29282;45.656;11.302;2023-05-18T13:38:31;1.80;;;1.27;;
33162;SDS011;29282;45.656;11.302;2023-05-18T13:40:59;3.20;;;1.20;;
33162;SDS011;29282;45.656;11.302;2023-05-18T13:43:25;3.90;;;1.38;;
33162;SDS011;29282;45.656;11.302;2023-05-18T13:45:51;2.63;;;1.20;;
33162;SDS011;29282;45.656;11.302;2023-05-18T13:48:16;1.63;;;1.05;;
33162;SDS011;29282;45.656;11.302;2023-05-18T13:50:42;2.58;;;1.27;;
33162;SDS011;29282;45.656;11.302;2023-05-18T13:53:07;2.67;;;1.50;;
33162;SDS011;29282;45.656;11.302;2023-05-18T13:55:33;2.28;;;1.40;;
33162;SDS011;29282;45.656;11.302;2023-05-18T13:57:59;3.70;;;1.50;;
33162;SDS011;29282;45.656;11.302;2023-05-18T14:00:25;3.13;;;1.27;;
33162;SDS011;29282;45.656;11.302;2023-05-18T14:02:50;2.03;;;1.13;;
33162;SDS011;29282;45.656;11.302;2023-05-18T14:05:17;2.45;;;1.33;;
33162;SDS011;29282;45.656;11.302;2023-05-18T14:07:42;2.60;;;1.38;;
33162;SDS011;29282;45.656;11.302;2023-05-18T14:10:08;2.33;;;1.23;;
33162;SDS011;29282;45.656;11.302;2023-05-18T14:12:35;2.50;;;1.50;;
33162;SDS011;29282;45.656;11.302;2023-05-18T14:15:01;1.65;;;1.13;;
33162;SDS011;29282;45.656;11.302;2023-05-18T14:17:28;2.72;;;1.40;;
33162;SDS011;29282;45.656;11.302;2023-05-18T14:19:54;2.35;;;1.30;;
33162;SDS011;29282;45.656;11.302;2023-05-18T14:22:20;2.60;;;1.27;;
33162;SDS011;29282;45.656;11.302;2023-05-18T14:24:46;2.30;;;1.40;;
33162;SDS011;29282;45.656;11.302;2023-05-18T14:27:14;3.30;;;1.40;;
33162;SDS011;29282;45.656;11.302;2023-05-18T14:29:40;2.17;;;1.30;;
33162;SDS011;29282;45.656;11.302;2023-05-18T14:32:06;1.40;;;1.20;;
33162;SDS011;29282;45.656;11.302;2023-05-18T14:34:32;1.38;;;1.17;;
33162;SDS011;29282;45.656;11.302;2023-05-18T14:36:57;2.60;;;1.40;;
33162;SDS011;29282;45.656;11.302;2023-05-18T14:39:23;2.03;;;1.40;;
33162;SDS011;29282;45.656;11.302;2023-05-18T14:41:48;1.55;;;1.23;;
33162;SDS011;29282;45.656;11.302;2023-05-18T14:44:13;1.65;;;1.10;;
33162;SDS011;29282;45.656;11.302;2023-05-18T14:46:39;1.40;;;1.10;;
33162;SDS011;29282;45.656;11.302;2023-05-18T14:49:05;1.38;;;1.20;;